Portada
METAR-TAF:

METAR-TAF

Aeropuertos :

Aeropuerto de Albacete

Albacete, España

latitud: 38-57N, longitud: 001-51W, altitud: 702 m

Observación

El informe se hizo hace 33 minutos, a las 12:00 UTC
Viento 6 kt del sur-sureste, variando entre este-noreste y oeste-suroeste
Temperatura 30°C
Humedad 27%
Presión 1018 hPa
Visibilidad 10 km o más
sin nubes por debajo de 1500 m y sin presencia de cumulonimbus.

METAR: LEAB 181200Z 16006KT 070V240 CAVOK 30/09 Q1018 NOSIG

Hora: 14:33 (12:33 UTC)

Pronóstico

El informe se hizo hace 1 hora y 33 minutos, a las 11:00 UTC
Pronóstico válido del 18 a las 12 UTC al 18 a las 21 UTC
Viento 12 kt del sur
Visibilidad 10 km o más
sin nubes por debajo de 1500 m y sin presencia de cumulonimbus.
Probabilidad 30% :
Temporalmente
del 18 a las 18 UTC al 18 a las 21 UTC
Viento 15 kt del sur con ráfagas de 25 kt

TAF: LEAB 181100Z 1812/1821 18012KT CAVOK PROB30 TEMPO 1818/1821 18015G25KT

Observaciones y pronósticos meteorológicos de más de 4000 aeropuertos (mensajes METAR y TAF).

Los puntos amarillos y rojos representan las estaciones disponibles.

Ponga el ratón en el punto deseado para ver el nombre de la estación.

Haga clic para ver las observaciones y los pronósticos meteorológicos.

Para cambiar el mapa : haga clic en los botones verdes con una cruz de color negro para hacer un zoom, en el botón verde con un guión para alejar o en las flechas verdes para mapas adyacentes.


METAR-TAF: